メキシコシティ の空港の天気 - METARとTAF

メキシコ・シティ国際空港 ( MMMX / MEX ) - メキシコ メキシコシティ
飛行場実況気象(Metar)
観測時間07/20 16:45 CDT (07/20 21:45 UTC)
風向・風速北東 8m/s
視程9650m
天気現象
全天の8割程度の雲 雲底高度 610m
全天を覆う雲 雲底高度 2440m
気温20℃
湿度56%
気圧1028hPa
METARMMMX 202145Z 05016KT 6SM BKN020CB OVC080 20/11 A3035 TEMPO 3SM TSRA RMK 60005 8/36/ HZY OCNL DROPS
過去の天気等 Google飛行場航空写真 Wunderground天気予報

過去48時間のMETAR

飛行場予報(TAF)
発表時間: 7/20 11:46 CDT (7/20 16:46 UTC)
予報対象時間: 20日13時 CDT ~ 21日19時 CDT
風向・風速北北東 5m/s
視程10km以上
全天の8割程度の雲 雲底高度 610m
全天の8割程度の雲 雲底高度 3,050m
20日16時 CDT から
風向・風速東 6m/s
視程10km以上
天気現象弱い雨
全天の8割程度の積乱雲 雲底高度 460m
全天を覆う雲 雲底高度 2,130m
20日16時 CDT ~ 20日20時 CDT に一時的に
視程4,830m
天気現象雷雨
20日21時 CDT から
風向・風速東 5m/s
視程10km以上
全天を覆う積乱雲 雲底高度 610m
20日21時 CDT ~ 21日1時 CDT に一時的に
視程8,050m
天気現象雷雨
21日3時 CDT から
風向・風速静穏
視程8,050m
天気現象煙霧
全天を覆う雲 雲底高度 460m
21日9時 CDT から
風向・風速静穏
視程8,050m
天気現象煙霧
全天の4割程度の雲 雲底高度 610m
全天の8割程度の雲 雲底高度 3,050m
21日13時 CDT から
風向・風速南南東 1m/s
視程10km以上
全天の4割程度の積乱雲 雲底高度 760m
全天の8割程度の雲 雲底高度 3,660m
TAF MMMX 201646Z 2018/2124 02010KT P6SM BKN020 BKN100 TX24/2020Z TN15/2112Z
FM202100 08012KT P6SM -RA BKN015CB OVC070
TEMPO 2021/2101 3SM TSRA
FM210200 10010KT P6SM OVC020CB
TEMPO 2102/2106 5SM TSRA
FM210800 00000KT 5SM HZ OVC015
FM211400 00000KT 5SM HZ SCT020 BKN100
FM211800 15001KT P6SM SCT025CB BKN120